createdAt,value
2018-07-07T00:00:21.913Z,97970.45
2018-07-07T00:02:50.540Z,98011.03
2018-07-07T00:05:19.082Z,98057.70
2018-07-07T00:07:47.648Z,98042.48
2018-07-07T00:10:16.783Z,98070.90
2018-07-07T00:12:45.671Z,98055.68
2018-07-07T00:15:17.310Z,98089.16
2018-07-07T00:17:46.349Z,98066.84
2018-07-07T00:20:15.439Z,98092.20
2018-07-07T00:22:43.975Z,98095.25
2018-07-07T00:25:13.244Z,98129.75
2018-07-07T00:27:41.950Z,98122.66
2018-07-07T00:30:10.466Z,98160.20
2018-07-07T00:32:39.012Z,98162.23
2018-07-07T00:35:08.103Z,98180.49
2018-07-07T00:37:36.627Z,98171.36
2018-07-07T00:40:05.255Z,98162.23
2018-07-07T00:42:33.902Z,98173.39
2018-07-07T00:45:02.414Z,98195.72
2018-07-07T00:47:30.917Z,98193.69
2018-07-07T00:49:59.467Z,98186.58
2018-07-07T00:52:27.997Z,98190.64
2018-07-07T00:54:56.602Z,98196.73
2018-07-07T00:57:25.339Z,98206.88
2018-07-07T00:59:54.290Z,98198.76
2018-07-07T01:02:23.871Z,98205.86
2018-07-07T01:04:53.670Z,98214.99
2018-07-07T01:07:22.818Z,98226.16
2018-07-07T01:09:51.485Z,98249.50
2018-07-07T01:12:20.354Z,98268.78
2018-07-07T01:14:49.432Z,98300.23
2018-07-07T01:17:18.092Z,98269.80
2018-07-07T01:19:46.632Z,98275.88
2018-07-07T01:22:15.404Z,98256.59
2018-07-07T01:24:44.348Z,98298.20
2018-07-07T01:27:12.855Z,98289.07
2018-07-07T01:29:42.056Z,98284.00
2018-07-07T01:32:10.936Z,98321.55
2018-07-07T01:34:39.546Z,98339.81
2018-07-07T01:37:08.103Z,98330.68
2018-07-07T01:39:36.690Z,98331.69
2018-07-07T01:42:05.645Z,98320.53
2018-07-07T01:44:34.170Z,98318.50
2018-07-07T01:47:02.853Z,98331.69
2018-07-07T01:49:31.382Z,98346.91
2018-07-07T01:51:59.883Z,98234.27
2018-07-07T01:54:28.854Z,98244.42
2018-07-07T01:56:57.353Z,98249.50
2018-07-07T01:59:26.970Z,98297.19
2018-07-07T02:01:55.470Z,98343.88
2018-07-07T02:04:24.011Z,98336.77
2018-07-07T02:06:52.618Z,98296.17
2018-07-07T02:09:21.194Z,98346.91
2018-07-07T02:11:49.730Z,98356.05
2018-07-07T02:14:18.249Z,98317.48
2018-07-07T02:16:47.073Z,98375.33
2018-07-07T02:19:17.654Z,98375.33
2018-07-07T02:21:46.707Z,98353.00
2018-07-07T02:24:15.493Z,98361.13
2018-07-07T02:26:44.063Z,98368.23
2018-07-07T02:29:12.821Z,98372.28
2018-07-07T02:31:41.808Z,98386.49
2018-07-07T02:34:10.454Z,98401.72
2018-07-07T02:36:39.017Z,98290.09
2018-07-07T02:39:07.628Z,98302.27
2018-07-07T02:41:36.504Z,98306.33
2018-07-07T02:44:05.201Z,98307.34
2018-07-07T02:46:33.786Z,98301.25
2018-07-07T02:49:03.224Z,98358.08
2018-07-07T02:51:31.740Z,98296.17
2018-07-07T02:54:00.341Z,98337.78
2018-07-07T02:56:28.823Z,98379.39
2018-07-07T02:58:57.373Z,98383.45
2018-07-07T03:01:25.913Z,98418.97
2018-07-07T03:03:54.433Z,98411.86
2018-07-07T03:06:23.174Z,98418.97
2018-07-07T03:08:51.770Z,98451.45
2018-07-07T03:11:20.506Z,98432.16
2018-07-07T03:13:49.146Z,98430.13
2018-07-07T03:16:17.646Z,98415.92
2018-07-07T03:18:46.125Z,98377.36
2018-07-07T03:21:14.740Z,98323.58
2018-07-07T03:23:43.210Z,98348.95
2018-07-07T03:26:11.743Z,98312.41
2018-07-07T03:28:40.529Z,98280.95
2018-07-07T03:31:09.047Z,98348.95
2018-07-07T03:33:37.567Z,98290.09
2018-07-07T03:36:06.263Z,98287.05
2018-07-07T03:38:34.753Z,98287.05
2018-07-07T03:41:03.299Z,98303.28
2018-07-07T03:43:31.845Z,98366.20
2018-07-07T03:46:00.340Z,98330.68
2018-07-07T03:48:29.355Z,98384.47
2018-07-07T03:50:57.823Z,98393.59
2018-07-07T03:53:26.386Z,98393.59
2018-07-07T03:55:54.951Z,98381.42
2018-07-07T03:58:23.459Z,98343.88
2018-07-07T04:00:53.271Z,98355.03
2018-07-07T04:03:21.825Z,98416.94
2018-07-07T04:05:50.730Z,98363.16
2018-07-07T04:08:19.274Z,98330.68
2018-07-07T04:10:47.881Z,98348.95
2018-07-07T04:13:16.410Z,98332.70
2018-07-07T04:15:44.927Z,98345.90
2018-07-07T04:18:13.467Z,98324.59
2018-07-07T04:20:41.995Z,98260.66
2018-07-07T04:23:10.539Z,98231.23
2018-07-07T04:25:39.037Z,98208.91
2018-07-07T04:28:07.562Z,98170.34
2018-07-07T04:30:36.101Z,98118.59
2018-07-07T04:33:05.027Z,97990.73
2018-07-07T04:35:33.574Z,98065.83
2018-07-07T04:38:02.081Z,98051.63
2018-07-07T04:40:30.813Z,98046.55
2018-07-07T04:42:59.723Z,98029.30
2018-07-07T04:45:28.226Z,98016.11
2018-07-07T04:47:56.767Z,97991.75
2018-07-07T04:50:25.381Z,97974.50
2018-07-07T04:52:53.874Z,97935.94
2018-07-07T04:55:22.678Z,97930.88
2018-07-07T04:57:51.269Z,97933.91
2018-07-07T05:00:19.798Z,97905.50
2018-07-07T05:02:48.640Z,97816.21
2018-07-07T05:05:17.412Z,97718.81
2018-07-07T05:07:46.153Z,97691.41
2018-07-07T05:10:15.456Z,97378.92
2018-07-07T05:12:44.057Z,97238.92
2018-07-07T05:15:12.882Z,97065.45
2018-07-07T05:17:41.371Z,96993.42
2018-07-07T05:20:09.854Z,97188.20
2018-07-07T05:22:38.709Z,97458.05
2018-07-07T05:25:07.186Z,97548.36
2018-07-07T05:27:35.696Z,97580.82
2018-07-07T05:30:04.661Z,97608.22
2018-07-07T05:32:33.169Z,97597.05
2018-07-07T05:35:01.702Z,97487.48
2018-07-07T05:37:30.240Z,97393.13
2018-07-07T05:39:58.763Z,97355.59
2018-07-07T05:42:27.289Z,97294.72
2018-07-07T05:44:55.850Z,97142.55
2018-07-07T05:47:24.370Z,97146.61
2018-07-07T05:49:52.912Z,96924.45
2018-07-07T05:52:21.430Z,96803.73
2018-07-07T05:54:49.919Z,96629.27
2018-07-07T05:57:18.494Z,96585.66
2018-07-07T05:59:47.101Z,96700.27
2018-07-07T06:02:15.621Z,96430.47
2018-07-07T06:04:44.125Z,96447.72
2018-07-07T06:07:12.617Z,96431.48
2018-07-07T06:09:41.157Z,96352.38
2018-07-07T06:12:09.937Z,96473.07
2018-07-07T06:14:38.561Z,96392.95
2018-07-07T06:17:07.069Z,96557.25
2018-07-07T06:19:35.605Z,96515.67
2018-07-07T06:22:04.162Z,96735.77
2018-07-07T06:24:32.649Z,96555.23
2018-07-07T06:27:01.133Z,96644.48
2018-07-07T06:29:29.800Z,96748.96
2018-07-07T06:31:58.292Z,96721.58
2018-07-07T06:34:26.817Z,96707.38
2018-07-07T06:36:55.629Z,96654.63
2018-07-07T06:39:24.295Z,96623.19
2018-07-07T06:41:52.887Z,96640.42
2018-07-07T06:44:21.369Z,96678.97
2018-07-07T06:46:49.853Z,96615.07
2018-07-07T06:49:18.389Z,96519.73
2018-07-07T06:51:46.871Z,96573.48
2018-07-07T06:54:15.495Z,96547.11
2018-07-07T06:56:44.024Z,96729.69
2018-07-07T06:59:12.535Z,96557.25
2018-07-07T07:01:41.474Z,96630.28
2018-07-07T07:04:09.966Z,96070.44
2018-07-07T07:06:38.446Z,96449.74
2018-07-07T07:09:08.997Z,96681.00
2018-07-07T07:11:37.527Z,96363.53
2018-07-07T07:14:06.240Z,96415.26
2018-07-07T07:16:34.743Z,96449.74
2018-07-07T07:19:03.533Z,96446.70
2018-07-07T07:21:33.085Z,96648.55
2018-07-07T07:24:01.764Z,96767.22
2018-07-07T07:26:30.315Z,97057.34
2018-07-07T07:28:58.861Z,97056.32
2018-07-07T07:31:27.360Z,96996.47
2018-07-07T07:33:55.844Z,97046.17
2018-07-07T07:36:38.991Z,97072.55
2018-07-07T07:39:07.552Z,97027.92
2018-07-07T07:41:36.066Z,97178.05
2018-07-07T07:44:04.543Z,97066.47
2018-07-07T07:46:33.587Z,97003.57
2018-07-07T07:49:02.100Z,97027.92
2018-07-07T07:51:30.626Z,97024.88
2018-07-07T07:53:59.189Z,97066.47
2018-07-07T07:56:28.629Z,97061.39
2018-07-07T07:58:58.062Z,96993.42
2018-07-07T08:01:26.864Z,97023.86
2018-07-07T08:03:56.034Z,97002.55
2018-07-07T08:06:24.588Z,96947.78
2018-07-07T08:08:53.161Z,97004.58
2018-07-07T08:11:21.751Z,96991.39
2018-07-07T08:13:51.416Z,96980.23
2018-07-07T08:16:19.877Z,97027.92
2018-07-07T08:18:48.883Z,96967.05
2018-07-07T08:21:17.374Z,97126.31
2018-07-07T08:23:45.969Z,96967.05
2018-07-07T08:26:14.477Z,96969.08
2018-07-07T08:28:43.469Z,97007.63
2018-07-07T08:31:11.946Z,96939.66
2018-07-07T08:33:40.411Z,96955.89
2018-07-07T08:36:08.961Z,96921.41
2018-07-07T08:38:37.416Z,96937.63
2018-07-07T08:41:06.139Z,96831.13
2018-07-07T08:43:34.672Z,96766.20
2018-07-07T08:46:03.163Z,96804.75
2018-07-07T08:48:31.651Z,96904.16
2018-07-07T08:51:00.209Z,96780.41
2018-07-07T08:53:28.696Z,96714.47
2018-07-07T08:55:57.444Z,96695.20
2018-07-07T08:58:26.050Z,96730.70
2018-07-07T09:00:54.644Z,96881.84
2018-07-07T09:03:23.427Z,96810.84
2018-07-07T09:05:51.904Z,96783.45
2018-07-07T09:08:20.387Z,96771.28
2018-07-07T09:10:48.996Z,96780.41
2018-07-07T09:13:17.873Z,96757.08
2018-07-07T09:15:46.325Z,96739.83
2018-07-07T09:18:14.812Z,96803.73
2018-07-07T09:20:43.344Z,96871.70
2018-07-07T09:23:12.165Z,96714.47
2018-07-07T09:25:40.684Z,96665.78
2018-07-07T09:28:09.165Z,96797.66
2018-07-07T09:30:38.110Z,96730.70
2018-07-07T09:33:06.649Z,96659.70
2018-07-07T09:35:35.129Z,96659.70
2018-07-07T09:38:03.657Z,96697.23
2018-07-07T09:40:32.131Z,96621.16
2018-07-07T09:43:00.809Z,96638.40
2018-07-07T09:45:29.340Z,96656.66
2018-07-07T09:47:57.824Z,96675.93
2018-07-07T09:50:26.782Z,96694.19
2018-07-07T09:52:55.329Z,96720.56
2018-07-07T09:55:23.853Z,96630.28
2018-07-07T09:57:52.402Z,96634.34
2018-07-07T10:00:26.160Z,96660.72
2018-07-07T10:02:54.886Z,96612.03
2018-07-07T10:05:23.471Z,96671.88
2018-07-07T10:07:51.925Z,96647.53
2018-07-07T10:10:20.593Z,96681.00
2018-07-07T10:12:49.072Z,96637.38
2018-07-07T10:15:17.546Z,96550.16
2018-07-07T10:17:46.105Z,96649.55
2018-07-07T10:20:14.598Z,96535.95
2018-07-07T10:22:43.357Z,96554.21
2018-07-07T10:25:11.856Z,96496.40
2018-07-07T10:27:40.356Z,96486.25
2018-07-07T10:30:09.425Z,96482.20
2018-07-07T10:32:37.890Z,96442.64
2018-07-07T10:35:06.474Z,96559.28
2018-07-07T10:37:34.964Z,96516.69
2018-07-07T10:40:03.952Z,96489.30
2018-07-07T10:42:32.441Z,96574.50
2018-07-07T10:45:00.996Z,96494.37
2018-07-07T10:47:30.016Z,96513.64
2018-07-07T10:49:58.464Z,96494.37
2018-07-07T10:52:27.028Z,96577.55
2018-07-07T10:54:55.592Z,96397.00
2018-07-07T10:57:24.146Z,96447.72
2018-07-07T10:59:52.828Z,96421.34
2018-07-07T11:02:21.349Z,96395.98
2018-07-07T11:04:49.825Z,96418.30
2018-07-07T11:07:18.394Z,96358.46
2018-07-07T11:09:46.864Z,96379.77
2018-07-07T11:12:15.484Z,96287.47
2018-07-07T11:14:43.953Z,96385.84
2018-07-07T11:17:12.440Z,96355.42
2018-07-07T11:19:40.951Z,96352.38
2018-07-07T11:22:10.027Z,96430.47
2018-07-07T11:24:38.517Z,96335.14
2018-07-07T11:27:06.989Z,96210.39
2018-07-07T11:29:35.488Z,96207.34
2018-07-07T11:32:04.076Z,96264.14
2018-07-07T11:34:32.618Z,96334.13
2018-07-07T11:37:01.177Z,96271.23
2018-07-07T11:39:29.853Z,96286.45
2018-07-07T11:41:58.404Z,96185.03
2018-07-07T11:44:27.036Z,96213.43
2018-07-07T11:46:55.641Z,96388.89
2018-07-07T11:49:24.195Z,96223.57
2018-07-07T11:51:53.181Z,96217.48
2018-07-07T11:54:21.702Z,96223.57
2018-07-07T11:56:50.175Z,96238.78
2018-07-07T11:59:18.714Z,96232.70
2018-07-07T12:01:47.205Z,96262.11
2018-07-07T12:04:15.744Z,96238.78
2018-07-07T12:06:44.216Z,96169.82
2018-07-07T12:09:12.865Z,96096.80
2018-07-07T12:11:41.614Z,96162.72
2018-07-07T12:14:10.039Z,96185.03
2018-07-07T12:16:38.504Z,96150.55
2018-07-07T12:19:07.013Z,96090.72
2018-07-07T12:21:35.514Z,96118.09
2018-07-07T12:24:04.061Z,96262.11
2018-07-07T12:26:32.563Z,96205.31
2018-07-07T12:29:01.118Z,96181.99
2018-07-07T12:31:29.753Z,96121.14
2018-07-07T12:33:58.219Z,96148.52
2018-07-07T12:36:26.980Z,96134.32
2018-07-07T12:38:55.550Z,96009.59
2018-07-07T12:41:24.314Z,96030.87
2018-07-07T12:43:52.793Z,95963.95
2018-07-07T12:46:21.310Z,95972.06
2018-07-07T12:48:49.835Z,96016.69
2018-07-07T12:51:18.350Z,96040.01
2018-07-07T12:53:46.886Z,96099.84
2018-07-07T12:56:15.361Z,96035.95
2018-07-07T12:58:43.854Z,96035.95
2018-07-07T13:01:12.464Z,96056.23
2018-07-07T13:03:40.906Z,96029.87
2018-07-07T13:06:09.390Z,95906.14
2018-07-07T13:08:37.857Z,95770.27
2018-07-07T13:11:06.793Z,95883.84
2018-07-07T13:13:35.282Z,95861.52
2018-07-07T13:16:03.809Z,95734.77
2018-07-07T13:18:32.394Z,95843.27
2018-07-07T13:21:00.970Z,95710.43
2018-07-07T13:23:29.684Z,95719.55
2018-07-07T13:25:58.237Z,95681.02
2018-07-07T13:28:26.932Z,95840.23
2018-07-07T13:30:55.520Z,95862.54
2018-07-07T13:33:24.222Z,95840.23
2018-07-07T13:35:52.693Z,95775.33
2018-07-07T13:38:21.162Z,95847.33
2018-07-07T13:40:49.658Z,95784.45
2018-07-07T13:43:18.257Z,96068.41
2018-07-07T13:45:46.826Z,95976.12
2018-07-07T13:48:15.813Z,95894.98
2018-07-07T13:50:44.328Z,96021.75
2018-07-07T13:53:12.803Z,96014.66
2018-07-07T13:55:41.714Z,95972.06
2018-07-07T13:58:10.194Z,95809.80
2018-07-07T14:00:38.670Z,95828.06
2018-07-07T14:03:07.602Z,95842.26
2018-07-07T14:05:36.086Z,95947.72
2018-07-07T14:08:04.590Z,95952.80
2018-07-07T14:10:33.233Z,95792.56
2018-07-07T14:13:01.726Z,95887.89
2018-07-07T14:15:30.308Z,95767.22
2018-07-07T14:17:59.101Z,95698.26
2018-07-07T14:20:27.621Z,95605.98
2018-07-07T14:22:56.241Z,95767.22
2018-07-07T14:25:24.796Z,95721.58
2018-07-07T14:27:53.321Z,95848.34
2018-07-07T14:30:21.840Z,95854.43
2018-07-07T14:32:50.547Z,95692.17
2018-07-07T14:35:19.062Z,95762.14
2018-07-07T14:37:47.634Z,95648.58
2018-07-07T14:40:16.172Z,95631.34
2018-07-07T14:42:59.430Z,95756.06
2018-07-07T14:45:29.997Z,95734.77
2018-07-07T14:48:03.258Z,95894.98
2018-07-07T14:50:31.769Z,95841.25
2018-07-07T14:53:00.356Z,95908.17
2018-07-07T14:55:29.705Z,95986.26
2018-07-07T14:57:58.601Z,96008.57
2018-07-07T15:00:28.589Z,95906.14
2018-07-07T15:02:57.929Z,95921.36
2018-07-07T15:05:26.428Z,95936.56
2018-07-07T15:07:55.181Z,95965.98
2018-07-07T15:10:23.856Z,95927.44
2018-07-07T15:12:52.421Z,95927.44
2018-07-07T15:15:20.913Z,96037.98
2018-07-07T15:17:49.440Z,95957.86
2018-07-07T15:20:17.931Z,95962.94
2018-07-07T15:22:46.543Z,95916.28
2018-07-07T15:25:14.974Z,95899.05
2018-07-07T15:27:43.486Z,95987.27
2018-07-07T15:30:12.009Z,95946.70
2018-07-07T15:32:40.501Z,95808.80
2018-07-07T15:35:09.016Z,95870.66
2018-07-07T15:37:37.529Z,95903.10
2018-07-07T15:40:06.395Z,95922.37
2018-07-07T15:42:34.909Z,95966.99
2018-07-07T15:45:03.753Z,95956.85
2018-07-07T15:47:32.273Z,96001.47
2018-07-07T15:50:00.816Z,95988.29
2018-07-07T15:52:29.389Z,95965.98
2018-07-07T15:54:57.885Z,96010.59
2018-07-07T15:57:26.850Z,95986.26
2018-07-07T15:59:55.622Z,96048.13
2018-07-07T16:02:24.117Z,96107.95
2018-07-07T16:04:52.593Z,96060.29
2018-07-07T16:07:21.215Z,96100.86
2018-07-07T16:09:49.780Z,96083.62
2018-07-07T16:12:18.243Z,96087.67
2018-07-07T16:14:47.124Z,96018.71
2018-07-07T16:17:15.612Z,96137.37
2018-07-07T16:19:44.120Z,96071.45
2018-07-07T16:22:12.769Z,96108.97
2018-07-07T16:24:41.265Z,96117.08
2018-07-07T16:27:09.761Z,96133.31
2018-07-07T16:29:38.387Z,96146.49
2018-07-07T16:32:07.121Z,96099.84
2018-07-07T16:34:35.655Z,96117.08
2018-07-07T16:37:04.190Z,96132.30
2018-07-07T16:39:32.721Z,96173.88
2018-07-07T16:42:01.637Z,96201.26
2018-07-07T16:44:30.305Z,96238.78
2018-07-07T16:46:58.961Z,96202.27
2018-07-07T16:49:27.656Z,96147.51
2018-07-07T16:51:56.219Z,96184.02
2018-07-07T16:54:24.735Z,96226.61
2018-07-07T16:56:53.702Z,96230.67
2018-07-07T16:59:22.189Z,96254.00
2018-07-07T17:01:51.898Z,96313.84
2018-07-07T17:04:20.921Z,96378.75
2018-07-07T17:06:49.783Z,96326.00
2018-07-07T17:09:18.929Z,96344.27
2018-07-07T17:11:47.733Z,96319.92
2018-07-07T17:14:16.180Z,96328.03
2018-07-07T17:16:45.857Z,96395.98
2018-07-07T17:19:15.932Z,96328.03
2018-07-07T17:21:45.706Z,96388.89
2018-07-07T17:24:14.794Z,96322.97
2018-07-07T17:26:43.558Z,96309.78
2018-07-07T17:29:12.082Z,96333.11
2018-07-07T17:31:40.589Z,96376.72
2018-07-07T17:34:09.107Z,96464.95
2018-07-07T17:36:37.913Z,96482.20
2018-07-07T17:39:06.389Z,96430.47
2018-07-07T17:41:36.032Z,96482.20
2018-07-07T17:44:04.505Z,96482.20
2018-07-07T17:46:33.026Z,96425.40
2018-07-07T17:49:01.604Z,96448.73
2018-07-07T17:51:30.693Z,96457.86
2018-07-07T17:54:00.770Z,96500.45
2018-07-07T17:56:29.532Z,96430.47
2018-07-07T17:58:58.277Z,96341.22
2018-07-07T18:01:26.843Z,96218.50
2018-07-07T18:03:55.553Z,96212.41
2018-07-07T18:06:24.109Z,96180.98
2018-07-07T18:08:52.573Z,96163.73
2018-07-07T18:11:21.606Z,96294.56
2018-07-07T18:13:50.189Z,96104.91
2018-07-07T18:16:18.709Z,96099.84
2018-07-07T18:18:47.349Z,96109.98
2018-07-07T18:21:15.837Z,95815.89
2018-07-07T18:23:44.355Z,95822.98
2018-07-07T18:26:12.881Z,96062.31
2018-07-07T18:28:41.477Z,96228.64
2018-07-07T18:31:09.996Z,96418.30
2018-07-07T18:33:38.498Z,96507.55
2018-07-07T18:36:07.262Z,96533.92
2018-07-07T18:38:35.756Z,96578.55
2018-07-07T18:41:04.212Z,96602.90
2018-07-07T18:43:33.022Z,96730.70
2018-07-07T18:46:01.524Z,96724.61
2018-07-07T18:48:29.985Z,96786.49
2018-07-07T18:50:58.643Z,96760.12
2018-07-07T18:53:27.148Z,96833.16
2018-07-07T18:55:55.792Z,96852.42
2018-07-07T18:58:24.277Z,96851.41
2018-07-07T19:00:52.821Z,96863.58
2018-07-07T19:03:21.586Z,96853.44
2018-07-07T19:05:50.074Z,96859.53
2018-07-07T19:08:18.746Z,96859.53
2018-07-07T19:10:47.251Z,96758.09
2018-07-07T19:13:16.205Z,96850.39
2018-07-07T19:15:46.469Z,96881.84
2018-07-07T19:18:16.361Z,96877.78
2018-07-07T19:20:50.237Z,96935.60
2018-07-07T19:23:24.077Z,96904.16
2018-07-07T19:25:57.864Z,96911.27
2018-07-07T19:28:26.394Z,96847.35
2018-07-07T19:30:55.007Z,96860.54
2018-07-07T19:33:28.703Z,96850.39
2018-07-07T19:36:02.735Z,96929.52
2018-07-07T19:38:31.227Z,97055.30
2018-07-07T19:40:59.843Z,97128.34
2018-07-07T19:43:28.392Z,97193.27
2018-07-07T19:45:57.114Z,97208.48
2018-07-07T19:48:25.617Z,97232.83
2018-07-07T19:50:54.314Z,97265.30
2018-07-07T19:53:22.794Z,97320.08
2018-07-07T19:55:51.278Z,97340.37
2018-07-07T19:58:19.886Z,97348.48
2018-07-07T20:00:48.461Z,97357.62
2018-07-07T20:03:17.134Z,97404.29
2018-07-07T20:05:45.632Z,97406.31
2018-07-07T20:08:14.214Z,97432.70
2018-07-07T20:10:43.231Z,97427.63
2018-07-07T20:13:11.807Z,97496.61
2018-07-07T20:15:51.552Z,97470.23
2018-07-07T20:18:20.065Z,97521.98
2018-07-07T20:21:03.884Z,97497.62
2018-07-07T20:23:32.353Z,97544.30
2018-07-07T20:26:05.032Z,97559.52
2018-07-07T20:28:38.798Z,97561.55
2018-07-07T20:31:07.294Z,97609.23
2018-07-07T20:33:35.858Z,97639.66
2018-07-07T20:36:04.313Z,97607.20
2018-07-07T20:38:32.824Z,97619.38
2018-07-07T20:41:01.314Z,97676.19
2018-07-07T20:43:29.924Z,97643.73
2018-07-07T20:45:58.404Z,97673.15
2018-07-07T20:48:26.863Z,97706.63
2018-07-07T20:50:55.382Z,97679.23
2018-07-07T20:53:23.873Z,97686.34
2018-07-07T20:55:52.462Z,97738.08
2018-07-07T20:58:20.960Z,97745.19
2018-07-07T21:00:49.453Z,97728.95
2018-07-07T21:03:18.001Z,97732.00
2018-07-07T21:05:46.673Z,97745.19
2018-07-07T21:08:15.187Z,97782.73
2018-07-07T21:10:43.970Z,97831.44
2018-07-07T21:13:13.289Z,97759.39
2018-07-07T21:15:41.878Z,97807.08
2018-07-07T21:18:10.378Z,97788.81
2018-07-07T21:20:38.859Z,97815.20
2018-07-07T21:23:07.360Z,97846.66
2018-07-07T21:25:35.858Z,97830.42
2018-07-07T21:28:04.363Z,97832.45
2018-07-07T21:30:32.894Z,97858.83
2018-07-07T21:33:01.352Z,97867.95
2018-07-07T21:35:30.245Z,97887.23
2018-07-07T21:37:59.259Z,97918.70
2018-07-07T21:40:27.725Z,97884.20
2018-07-07T21:42:56.266Z,97959.28
2018-07-07T21:45:25.133Z,97899.41
2018-07-07T21:47:53.588Z,97942.03
2018-07-07T21:50:22.153Z,97906.52
2018-07-07T21:52:50.653Z,97947.11
2018-07-07T21:55:19.192Z,97981.61
2018-07-07T21:57:52.853Z,97992.77
2018-07-07T22:00:26.653Z,98035.38
2018-07-07T22:03:00.456Z,98027.27
2018-07-07T22:05:32.485Z,98052.64
2018-07-07T22:08:05.434Z,98044.52
2018-07-07T22:10:34.137Z,98076.98
2018-07-07T22:13:02.625Z,98075.97
2018-07-07T22:15:31.126Z,98112.50
2018-07-07T22:17:59.618Z,98075.97
2018-07-07T22:20:34.803Z,98109.46
2018-07-07T22:23:03.479Z,98160.20
2018-07-07T22:25:32.006Z,98189.63
2018-07-07T22:28:00.777Z,98136.86
2018-07-07T22:30:29.253Z,98149.03
2018-07-07T22:33:03.309Z,98150.05
2018-07-07T22:35:37.226Z,98120.63
2018-07-07T22:38:09.842Z,98173.39
2018-07-07T22:40:38.370Z,98184.55
2018-07-07T22:43:06.990Z,98227.17
2018-07-07T22:45:35.934Z,98220.06
2018-07-07T22:48:04.393Z,98263.70
2018-07-07T22:50:32.865Z,98224.13
2018-07-07T22:53:01.522Z,98228.19
2018-07-07T22:55:30.028Z,98308.36
2018-07-07T22:57:58.530Z,98275.88
2018-07-07T23:00:32.405Z,98312.41
2018-07-07T23:03:01.417Z,98289.07
2018-07-07T23:05:29.982Z,98315.45
2018-07-07T23:07:58.572Z,98327.64
2018-07-07T23:10:27.078Z,98298.20
2018-07-07T23:12:55.661Z,98301.25
2018-07-07T23:15:24.249Z,98326.63
2018-07-07T23:17:52.750Z,98344.89
2018-07-07T23:20:21.254Z,98334.74
2018-07-07T23:22:55.273Z,98367.22
2018-07-07T23:25:23.893Z,98317.48
2018-07-07T23:27:52.781Z,98301.25
2018-07-07T23:30:21.761Z,98305.31
2018-07-07T23:32:50.917Z,98318.50
2018-07-07T23:35:19.727Z,98310.38
2018-07-07T23:37:48.255Z,98306.33
2018-07-07T23:40:16.781Z,98327.64
2018-07-07T23:42:45.399Z,98375.33
2018-07-07T23:45:13.925Z,98371.27
2018-07-07T23:47:42.917Z,98389.54
2018-07-07T23:50:11.507Z,98417.95
2018-07-07T23:52:39.993Z,98379.39
2018-07-07T23:55:08.686Z,98435.20
2018-07-07T23:57:37.152Z,98427.09
